sensor_id;sensor_type;location;lat;lon;timestamp;pressure;altitude;pressure_sealevel;temperature;humidity
26775;BME280;14362;51.902;7.626;2023-03-26T00:02:37;100064.66;;;7.66;100.00
26775;BME280;14362;51.902;7.626;2023-03-26T00:06:38;100077.25;;;7.72;100.00
26775;BME280;14362;51.902;7.626;2023-03-26T00:10:42;100080.69;;;7.77;100.00
26775;BME280;14362;51.902;7.626;2023-03-26T00:14:44;100098.31;;;7.81;100.00
26775;BME280;14362;51.902;7.626;2023-03-26T00:18:46;100091.50;;;7.87;100.00
26775;BME280;14362;51.902;7.626;2023-03-26T00:22:48;100095.91;;;7.88;100.00
26775;BME280;14362;51.902;7.626;2023-03-26T00:26:51;100091.50;;;7.87;100.00
26775;BME280;14362;51.902;7.626;2023-03-26T00:30:57;100088.72;;;7.87;100.00
26775;BME280;14362;51.902;7.626;2023-03-26T00:34:59;100093.13;;;7.88;100.00
26775;BME280;14362;51.902;7.626;2023-03-26T00:39:02;100095.28;;;7.91;100.00
26775;BME280;14362;51.902;7.626;2023-03-26T00:43:06;100091.16;;;7.89;100.00
26775;BME280;14362;51.902;7.626;2023-03-26T00:47:17;100092.50;;;7.91;100.00
26775;BME280;14362;51.902;7.626;2023-03-26T00:51:20;100096.72;;;7.89;100.00
26775;BME280;14362;51.902;7.626;2023-03-26T00:55:21;100093.63;;;7.90;100.00
26775;BME280;14362;51.902;7.626;2023-03-26T00:59:24;100088.09;;;7.90;100.00
26775;BME280;14362;51.902;7.626;2023-03-26T01:03:32;100074.72;;;7.92;100.00
26775;BME280;14362;51.902;7.626;2023-03-26T01:07:34;100069.81;;;7.89;100.00
26775;BME280;14362;51.902;7.626;2023-03-26T01:11:36;100064.91;;;7.86;100.00
26775;BME280;14362;51.902;7.626;2023-03-26T01:15:39;100070.09;;;7.88;100.00
26775;BME280;14362;51.902;7.626;2023-03-26T01:19:46;100064.25;;;7.89;100.00
26775;BME280;14362;51.902;7.626;2023-03-26T01:23:56;100063.63;;;7.92;100.00
26775;BME280;14362;51.902;7.626;2023-03-26T01:27:58;100056.91;;;7.93;100.00
26775;BME280;14362;51.902;7.626;2023-03-26T01:32:06;100062.63;;;7.97;100.00
26775;BME280;14362;51.902;7.626;2023-03-26T01:36:16;100053.16;;;7.98;100.00
26775;BME280;14362;51.902;7.626;2023-03-26T01:40:25;100048.13;;;8.00;100.00
26775;BME280;14362;51.902;7.626;2023-03-26T01:44:33;100038.97;;;7.99;100.00
26775;BME280;14362;51.902;7.626;2023-03-26T01:48:40;100048.28;;;8.03;100.00
26775;BME280;14362;51.902;7.626;2023-03-26T01:52:42;100040.28;;;8.02;100.00
26775;BME280;14362;51.902;7.626;2023-03-26T01:56:53;100040.75;;;8.04;100.00
26775;BME280;14362;51.902;7.626;2023-03-26T02:01:08;100030.78;;;8.03;100.00
26775;BME280;14362;51.902;7.626;2023-03-26T02:05:16;100030.00;;;8.02;100.00
26775;BME280;14362;51.902;7.626;2023-03-26T02:09:24;100024.09;;;8.04;100.00
26775;BME280;14362;51.902;7.626;2023-03-26T02:13:31;100018.09;;;8.02;100.00
26775;BME280;14362;51.902;7.626;2023-03-26T02:17:32;100013.00;;;8.04;100.00
26775;BME280;14362;51.902;7.626;2023-03-26T02:21:34;100004.38;;;8.05;100.00
26775;BME280;14362;51.902;7.626;2023-03-26T02:25:35;100006.31;;;8.05;100.00
26775;BME280;14362;51.902;7.626;2023-03-26T02:29:40;99994.91;;;8.06;100.00
26775;BME280;14362;51.902;7.626;2023-03-26T02:33:41;99993.75;;;8.07;100.00
26775;BME280;14362;51.902;7.626;2023-03-26T02:37:43;99983.16;;;8.09;100.00
26775;BME280;14362;51.902;7.626;2023-03-26T02:41:46;99980.38;;;8.09;100.00
26775;BME280;14362;51.902;7.626;2023-03-26T02:45:48;99975.63;;;8.09;100.00
26775;BME280;14362;51.902;7.626;2023-03-26T02:49:50;99976.94;;;8.12;100.00
26775;BME280;14362;51.902;7.626;2023-03-26T02:53:51;99972.22;;;8.12;100.00
26775;BME280;14362;51.902;7.626;2023-03-26T02:57:54;99977.41;;;8.14;100.00
26775;BME280;14362;51.902;7.626;2023-03-26T03:01:56;99963.53;;;8.14;100.00
26775;BME280;14362;51.902;7.626;2023-03-26T03:05:58;99958.81;;;8.14;100.00
26775;BME280;14362;51.902;7.626;2023-03-26T03:09:59;99960.78;;;8.14;100.00
26775;BME280;14362;51.902;7.626;2023-03-26T03:14:02;99970.72;;;8.15;100.00
26775;BME280;14362;51.902;7.626;2023-03-26T03:18:05;99959.63;;;8.15;100.00
26775;BME280;14362;51.902;7.626;2023-03-26T03:22:06;99953.81;;;8.16;100.00
26775;BME280;14362;51.902;7.626;2023-03-26T03:26:12;99961.78;;;8.18;100.00
26775;BME280;14362;51.902;7.626;2023-03-26T03:30:14;99947.59;;;8.19;100.00
26775;BME280;14362;51.902;7.626;2023-03-26T03:34:17;99947.25;;;8.21;100.00
26775;BME280;14362;51.902;7.626;2023-03-26T03:38:19;99938.94;;;8.21;100.00
26775;BME280;14362;51.902;7.626;2023-03-26T03:42:20;99944.81;;;8.19;100.00
26775;BME280;14362;51.902;7.626;2023-03-26T03:46:21;99937.28;;;8.20;100.00
26775;BME280;14362;51.902;7.626;2023-03-26T03:50:24;99930.59;;;8.21;100.00
26775;BME280;14362;51.902;7.626;2023-03-26T03:54:26;99928.16;;;8.19;100.00
26775;BME280;14362;51.902;7.626;2023-03-26T03:58:28;99923.41;;;8.20;100.00
26775;BME280;14362;51.902;7.626;2023-03-26T04:02:30;99916.22;;;8.19;100.00
26775;BME280;14362;51.902;7.626;2023-03-26T04:06:34;99916.22;;;8.19;100.00
26775;BME280;14362;51.902;7.626;2023-03-26T04:10:36;99910.38;;;8.20;100.00
26775;BME280;14362;51.902;7.626;2023-03-26T04:14:37;99904.97;;;8.24;100.00
26775;BME280;14362;51.902;7.626;2023-03-26T04:18:39;99903.34;;;8.23;100.00
26775;BME280;14362;51.902;7.626;2023-03-26T04:22:42;99908.41;;;8.21;100.00
26775;BME280;14362;51.902;7.626;2023-03-26T04:26:43;99897.94;;;8.18;100.00
26775;BME280;14362;51.902;7.626;2023-03-26T04:30:47;99899.56;;;8.19;100.00
26775;BME280;14362;51.902;7.626;2023-03-26T04:34:52;99888.31;;;8.24;100.00
26775;BME280;14362;51.902;7.626;2023-03-26T04:38:55;99894.53;;;8.21;100.00
26775;BME280;14362;51.902;7.626;2023-03-26T04:43:02;99887.47;;;8.23;100.00
26775;BME280;14362;51.902;7.626;2023-03-26T04:47:03;99894.53;;;8.21;100.00
26775;BME280;14362;51.902;7.626;2023-03-26T04:51:05;99877.88;;;8.21;100.00
26775;BME280;14362;51.902;7.626;2023-03-26T04:55:18;99883.75;;;8.19;100.00
26775;BME280;14362;51.902;7.626;2023-03-26T04:59:23;99867.25;;;8.14;100.00
26775;BME280;14362;51.902;7.626;2023-03-26T05:03:29;99867.41;;;8.18;100.00
26775;BME280;14362;51.902;7.626;2023-03-26T05:07:31;99863.31;;;8.15;100.00
26775;BME280;14362;51.902;7.626;2023-03-26T05:11:34;99850.28;;;8.16;100.00
26775;BME280;14362;51.902;7.626;2023-03-26T05:15:35;99847.50;;;8.16;100.00
26775;BME280;14362;51.902;7.626;2023-03-26T05:19:37;99847.81;;;8.14;100.00
26775;BME280;14362;51.902;7.626;2023-03-26T05:23:38;99838.66;;;8.14;100.00
26775;BME280;14362;51.902;7.626;2023-03-26T05:27:41;99839.47;;;8.14;100.00
26775;BME280;14362;51.902;7.626;2023-03-26T05:31:43;99843.88;;;8.15;100.00
26775;BME280;14362;51.902;7.626;2023-03-26T05:35:45;99838.66;;;8.14;100.00
26775;BME280;14362;51.902;7.626;2023-03-26T05:39:51;99835.88;;;8.14;100.00
26775;BME280;14362;51.902;7.626;2023-03-26T05:43:54;99832.78;;;8.15;100.00
26775;BME280;14362;51.902;7.626;2023-03-26T05:47:56;99828.56;;;8.18;100.00
26775;BME280;14362;51.902;7.626;2023-03-26T05:51:57;99823.00;;;8.18;100.00
26775;BME280;14362;51.902;7.626;2023-03-26T05:55:58;99821.06;;;8.18;100.00
26775;BME280;14362;51.902;7.626;2023-03-26T06:00:03;99819.56;;;8.21;100.00
26775;BME280;14362;51.902;7.626;2023-03-26T06:04:10;99810.44;;;8.20;100.00
26775;BME280;14362;51.902;7.626;2023-03-26T06:08:12;99790.50;;;8.27;100.00
26775;BME280;14362;51.902;7.626;2023-03-26T06:12:14;99785.56;;;8.32;100.00
26775;BME280;14362;51.902;7.626;2023-03-26T06:16:17;99787.53;;;8.32;100.00
26775;BME280;14362;51.902;7.626;2023-03-26T06:20:19;99776.25;;;8.37;100.00
26775;BME280;14362;51.902;7.626;2023-03-26T06:24:20;99773.28;;;8.42;100.00
26775;BME280;14362;51.902;7.626;2023-03-26T06:28:21;99767.56;;;8.47;100.00
26775;BME280;14362;51.902;7.626;2023-03-26T06:32:24;99766.53;;;8.51;100.00
26775;BME280;14362;51.902;7.626;2023-03-26T06:36:26;99763.91;;;8.55;100.00
26775;BME280;14362;51.902;7.626;2023-03-26T06:40:27;99763.72;;;8.60;100.00
26775;BME280;14362;51.902;7.626;2023-03-26T06:44:29;99763.53;;;8.65;100.00
26775;BME280;14362;51.902;7.626;2023-03-26T06:48:31;99758.13;;;8.68;100.00
26775;BME280;14362;51.902;7.626;2023-03-26T06:52:33;99761.88;;;8.72;100.00
26775;BME280;14362;51.902;7.626;2023-03-26T06:56:34;99763.63;;;8.77;100.00
26775;BME280;14362;51.902;7.626;2023-03-26T07:00:36;99759.03;;;8.81;100.00
26775;BME280;14362;51.902;7.626;2023-03-26T07:04:38;99761.94;;;8.84;100.00
26775;BME280;14362;51.902;7.626;2023-03-26T07:08:40;99747.72;;;8.86;100.00
26775;BME280;14362;51.902;7.626;2023-03-26T07:12:42;99756.06;;;8.86;100.00
26775;BME280;14362;51.902;7.626;2023-03-26T07:16:43;99751.66;;;8.85;100.00
26775;BME280;14362;51.902;7.626;2023-03-26T07:20:46;99735.59;;;8.90;100.00
26775;BME280;14362;51.902;7.626;2023-03-26T07:24:49;99731.94;;;8.98;100.00
26775;BME280;14362;51.902;7.626;2023-03-26T07:28:54;99734.50;;;9.03;100.00
26775;BME280;14362;51.902;7.626;2023-03-26T07:33:03;99729.09;;;9.07;100.00
26775;BME280;14362;51.902;7.626;2023-03-26T07:37:14;99727.06;;;9.15;100.00
26775;BME280;14362;51.902;7.626;2023-03-26T07:41:24;99726.09;;;9.12;100.00
26775;BME280;14362;51.902;7.626;2023-03-26T07:45:32;99722.78;;;9.18;100.00
26775;BME280;14362;51.902;7.626;2023-03-26T07:49:37;99714.84;;;9.28;100.00
26775;BME280;14362;51.902;7.626;2023-03-26T07:53:40;99703.88;;;9.32;100.00
26775;BME280;14362;51.902;7.626;2023-03-26T07:57:51;99702.00;;;9.36;100.00
26775;BME280;14362;51.902;7.626;2023-03-26T08:02:11;99701.81;;;9.41;100.00
26775;BME280;14362;51.902;7.626;2023-03-26T08:06:16;99694.16;;;9.38;100.00
26775;BME280;14362;51.902;7.626;2023-03-26T08:10:26;99693.47;;;9.41;100.00
26775;BME280;14362;51.902;7.626;2023-03-26T08:14:41;99684.09;;;9.45;100.00
26775;BME280;14362;51.902;7.626;2023-03-26T08:18:51;99687.09;;;9.40;100.00
26775;BME280;14362;51.902;7.626;2023-03-26T08:23:01;99683.66;;;9.43;100.00
26775;BME280;14362;51.902;7.626;2023-03-26T08:27:13;99685.13;;;9.41;100.00
26775;BME280;14362;51.902;7.626;2023-03-26T08:31:27;99687.78;;;9.37;100.00
26775;BME280;14362;51.902;7.626;2023-03-26T08:35:32;99681.53;;;9.40;100.00
26775;BME280;14362;51.902;7.626;2023-03-26T08:39:34;99683.50;;;9.40;100.00
26775;BME280;14362;51.902;7.626;2023-03-26T08:44:06;99680.03;;;9.43;100.00
26775;BME280;14362;51.902;7.626;2023-03-26T08:48:37;99678.69;;;9.49;100.00
26775;BME280;14362;51.902;7.626;2023-03-26T08:53:18;99680.78;;;9.52;100.00
26775;BME280;14362;51.902;7.626;2023-03-26T08:57:42;99669.09;;;9.58;100.00
26775;BME280;14362;51.902;7.626;2023-03-26T09:06:37;99665.16;;;9.59;100.00
26775;BME280;14362;51.902;7.626;2023-03-26T09:10:51;99668.25;;;9.58;100.00
26775;BME280;14362;51.902;7.626;2023-03-26T09:20:03;99664.69;;;9.69;100.00
26775;BME280;14362;51.902;7.626;2023-03-26T09:29:11;99648.75;;;9.78;100.00
26775;BME280;14362;51.902;7.626;2023-03-26T09:33:30;99659.88;;;9.78;100.00
26775;BME280;14362;51.902;7.626;2023-03-26T09:37:48;99653.38;;;9.86;100.00
26775;BME280;14362;51.902;7.626;2023-03-26T09:41:58;99650.47;;;9.95;100.00
26775;BME280;14362;51.902;7.626;2023-03-26T09:46:13;99650.06;;;10.05;100.00
26775;BME280;14362;51.902;7.626;2023-03-26T09:50:32;99650.63;;;9.98;100.00
26775;BME280;14362;51.902;7.626;2023-03-26T09:54:55;99653.16;;;9.91;100.00
26775;BME280;14362;51.902;7.626;2023-03-26T09:59:10;99647.22;;;9.93;100.00
26775;BME280;14362;51.902;7.626;2023-03-26T10:03:24;99647.84;;;9.98;100.00
26775;BME280;14362;51.902;7.626;2023-03-26T10:07:40;99653.91;;;10.00;100.00
26775;BME280;14362;51.902;7.626;2023-03-26T10:11:58;99654.00;;;10.04;100.00
26775;BME280;14362;51.902;7.626;2023-03-26T10:16:13;99648.84;;;9.94;100.00
26775;BME280;14362;51.902;7.626;2023-03-26T10:20:31;99643.69;;;10.04;100.00
26775;BME280;14362;51.902;7.626;2023-03-26T10:24:47;99639.50;;;9.98;100.00
26775;BME280;14362;51.902;7.626;2023-03-26T10:29:07;99638.94;;;10.05;100.00
26775;BME280;14362;51.902;7.626;2023-03-26T10:33:19;99643.34;;;10.06;100.00
26775;BME280;14362;51.902;7.626;2023-03-26T10:37:29;99638.81;;;10.13;100.00
26775;BME280;14362;51.902;7.626;2023-03-26T10:41:38;99633.13;;;10.21;100.00
26775;BME280;14362;51.902;7.626;2023-03-26T10:46:08;99632.31;;;10.33;100.00
26775;BME280;14362;51.902;7.626;2023-03-26T10:50:25;99637.66;;;10.50;100.00
26775;BME280;14362;51.902;7.626;2023-03-26T10:54:34;99641.94;;;10.59;100.00
26775;BME280;14362;51.902;7.626;2023-03-26T10:58:38;99626.00;;;10.60;100.00
26775;BME280;14362;51.902;7.626;2023-03-26T11:02:45;99640.63;;;10.69;100.00
26775;BME280;14362;51.902;7.626;2023-03-26T11:06:55;99621.69;;;10.74;100.00
26775;BME280;14362;51.902;7.626;2023-03-26T11:11:07;99621.31;;;10.76;100.00
26775;BME280;14362;51.902;7.626;2023-03-26T11:15:18;99615.38;;;10.89;100.00
26775;BME280;14362;51.902;7.626;2023-03-26T11:19:29;99615.94;;;10.95;100.00
26775;BME280;14362;51.902;7.626;2023-03-26T11:23:34;99620.47;;;10.87;100.00
26775;BME280;14362;51.902;7.626;2023-03-26T11:27:44;99621.22;;;10.84;100.00
26775;BME280;14362;51.902;7.626;2023-03-26T11:31:56;99617.13;;;10.94;100.00
26775;BME280;14362;51.902;7.626;2023-03-26T11:36:04;99620.16;;;10.89;100.00
26775;BME280;14362;51.902;7.626;2023-03-26T11:40:11;99616.91;;;10.87;100.00
26775;BME280;14362;51.902;7.626;2023-03-26T11:44:19;99612.25;;;10.79;100.00
26775;BME280;14362;51.902;7.626;2023-03-26T11:48:24;99611.00;;;10.76;100.00
26775;BME280;14362;51.902;7.626;2023-03-26T11:52:29;99613.44;;;10.78;100.00
26775;BME280;14362;51.902;7.626;2023-03-26T11:56:32;99617.44;;;10.53;100.00
26775;BME280;14362;51.902;7.626;2023-03-26T12:00:36;99617.72;;;10.36;100.00
26775;BME280;14362;51.902;7.626;2023-03-26T12:04:40;99614.31;;;10.30;100.00
26775;BME280;14362;51.902;7.626;2023-03-26T12:08:43;99616.91;;;10.23;100.00
26775;BME280;14362;51.902;7.626;2023-03-26T12:12:45;99613.06;;;10.04;100.00
26775;BME280;14362;51.902;7.626;2023-03-26T12:17:02;99616.78;;;10.08;100.00
26775;BME280;14362;51.902;7.626;2023-03-26T12:21:07;99620.22;;;9.93;100.00
26775;BME280;14362;51.902;7.626;2023-03-26T12:25:15;99618.16;;;10.02;100.00
26775;BME280;14362;51.902;7.626;2023-03-26T12:29:17;99607.25;;;10.09;100.00
26775;BME280;14362;51.902;7.626;2023-03-26T12:33:23;99606.91;;;10.11;100.00
26775;BME280;14362;51.902;7.626;2023-03-26T12:37:34;99606.91;;;10.11;100.00
26775;BME280;14362;51.902;7.626;2023-03-26T12:41:39;99600.78;;;10.17;100.00
26775;BME280;14362;51.902;7.626;2023-03-26T12:45:42;99603.69;;;10.09;100.00
26775;BME280;14362;51.902;7.626;2023-03-26T12:49:44;99615.97;;;10.08;100.00
26775;BME280;14362;51.902;7.626;2023-03-26T12:54:18;99616.09;;;10.11;100.00
26775;BME280;14362;51.902;7.626;2023-03-26T12:58:34;99611.63;;;9.86;100.00
26775;BME280;14362;51.902;7.626;2023-03-26T13:07:16;99625.63;;;9.66;100.00
26775;BME280;14362;51.902;7.626;2023-03-26T13:11:28;99632.81;;;9.67;100.00
26775;BME280;14362;51.902;7.626;2023-03-26T13:15:35;99636.13;;;9.48;100.00
26775;BME280;14362;51.902;7.626;2023-03-26T13:19:41;99631.41;;;9.61;100.00
26775;BME280;14362;51.902;7.626;2023-03-26T13:23:53;99643.50;;;9.32;100.00
26775;BME280;14362;51.902;7.626;2023-03-26T13:28:11;99641.00;;;9.19;100.00
26775;BME280;14362;51.902;7.626;2023-03-26T13:32:21;99639.00;;;9.08;100.00
26775;BME280;14362;51.902;7.626;2023-03-26T13:36:32;99641.53;;;9.01;100.00
26775;BME280;14362;51.902;7.626;2023-03-26T13:40:41;99650.88;;;8.96;100.00
26775;BME280;14362;51.902;7.626;2023-03-26T13:44:54;99647.47;;;8.91;100.00
26775;BME280;14362;51.902;7.626;2023-03-26T13:49:01;99647.09;;;9.01;100.00
26775;BME280;14362;51.902;7.626;2023-03-26T13:53:06;99631.16;;;8.89;100.00
26775;BME280;14362;51.902;7.626;2023-03-26T13:57:15;99630.59;;;8.96;100.00
26775;BME280;14362;51.902;7.626;2023-03-26T14:01:22;99630.81;;;9.11;100.00
26775;BME280;14362;51.902;7.626;2023-03-26T14:05:38;99635.22;;;9.12;100.00
26775;BME280;14362;51.902;7.626;2023-03-26T14:09:45;99643.78;;;9.19;100.00
26775;BME280;14362;51.902;7.626;2023-03-26T14:13:51;99641.75;;;9.08;100.00
26775;BME280;14362;51.902;7.626;2023-03-26T14:18:02;99650.34;;;9.03;100.00
26775;BME280;14362;51.902;7.626;2023-03-26T14:22:13;99649.38;;;8.99;100.00
26775;BME280;14362;51.902;7.626;2023-03-26T14:26:28;99661.16;;;8.96;100.00
26775;BME280;14362;51.902;7.626;2023-03-26T14:30:51;99655.34;;;8.89;100.00
26775;BME280;14362;51.902;7.626;2023-03-26T14:35:09;99664.16;;;8.91;100.00
26775;BME280;14362;51.902;7.626;2023-03-26T14:39:36;99660.56;;;8.90;100.00
26775;BME280;14362;51.902;7.626;2023-03-26T14:48:46;99670.38;;;8.88;100.00
26775;BME280;14362;51.902;7.626;2023-03-26T14:52:51;99674.19;;;8.83;100.00
26775;BME280;14362;51.902;7.626;2023-03-26T14:57:18;99682.72;;;8.78;100.00
26775;BME280;14362;51.902;7.626;2023-03-26T15:01:24;99681.84;;;8.66;100.00
26775;BME280;14362;51.902;7.626;2023-03-26T15:06:05;99688.13;;;8.75;100.00
26775;BME280;14362;51.902;7.626;2023-03-26T15:11:04;99694.63;;;8.58;100.00
26775;BME280;14362;51.902;7.626;2023-03-26T15:15:48;99692.47;;;8.64;100.00
26775;BME280;14362;51.902;7.626;2023-03-26T15:25:01;99695.84;;;8.49;100.00
26775;BME280;14362;51.902;7.626;2023-03-26T15:43:06;99718.88;;;8.70;100.00
26775;BME280;14362;51.902;7.626;2023-03-26T15:47:35;99723.56;;;8.57;100.00
26775;BME280;14362;51.902;7.626;2023-03-26T15:51:45;99721.28;;;8.51;100.00
26775;BME280;14362;51.902;7.626;2023-03-26T15:56:06;99728.41;;;8.31;100.00
26775;BME280;14362;51.902;7.626;2023-03-26T16:00:19;99741.00;;;8.29;100.00
26775;BME280;14362;51.902;7.626;2023-03-26T16:04:28;99749.00;;;8.30;100.00
26775;BME280;14362;51.902;7.626;2023-03-26T16:08:41;99747.25;;;8.17;100.00
26775;BME280;14362;51.902;7.626;2023-03-26T16:12:54;99752.47;;;8.19;100.00
26775;BME280;14362;51.902;7.626;2023-03-26T16:17:16;99753.47;;;8.06;100.00
26775;BME280;14362;51.902;7.626;2023-03-26T16:21:42;99757.53;;;8.17;100.00
26775;BME280;14362;51.902;7.626;2023-03-26T16:25:57;99765.53;;;8.10;100.00
26775;BME280;14362;51.902;7.626;2023-03-26T16:30:11;99777.13;;;8.04;100.00
26775;BME280;14362;51.902;7.626;2023-03-26T16:34:23;99778.78;;;7.96;100.00
26775;BME280;14362;51.902;7.626;2023-03-26T16:38:44;99778.75;;;8.05;100.00
26775;BME280;14362;51.902;7.626;2023-03-26T16:42:53;99792.97;;;8.03;100.00
26775;BME280;14362;51.902;7.626;2023-03-26T16:47:06;99795.41;;;8.05;100.00
26775;BME280;14362;51.902;7.626;2023-03-26T16:51:15;99803.47;;;7.81;100.00
26775;BME280;14362;51.902;7.626;2023-03-26T16:55:31;99816.84;;;7.79;100.00
26775;BME280;14362;51.902;7.626;2023-03-26T16:59:53;99823.56;;;7.69;100.00
26775;BME280;14362;51.902;7.626;2023-03-26T17:03:59;99833.03;;;7.68;100.00
26775;BME280;14362;51.902;7.626;2023-03-26T17:08:08;99829.91;;;7.78;100.00
26775;BME280;14362;51.902;7.626;2023-03-26T17:12:16;99856.66;;;7.49;100.00
26775;BME280;14362;51.902;7.626;2023-03-26T17:16:26;99855.84;;;7.65;100.00
26775;BME280;14362;51.902;7.626;2023-03-26T17:20:34;99870.03;;;7.47;100.00
26775;BME280;14362;51.902;7.626;2023-03-26T17:24:42;99876.25;;;7.52;100.00
26775;BME280;14362;51.902;7.626;2023-03-26T17:29:03;99886.19;;;7.53;100.00
26775;BME280;14362;51.902;7.626;2023-03-26T17:33:21;99886.00;;;7.50;100.00
26775;BME280;14362;51.902;7.626;2023-03-26T17:37:41;99903.44;;;7.33;100.00
26775;BME280;14362;51.902;7.626;2023-03-26T17:41:51;99910.78;;;7.38;100.00
26775;BME280;14362;51.902;7.626;2023-03-26T17:45:55;99914.19;;;7.35;100.00
26775;BME280;14362;51.902;7.626;2023-03-26T17:50:02;99919.41;;;7.36;100.00
26775;BME280;14362;51.902;7.626;2023-03-26T17:54:07;99930.47;;;7.28;100.00
26775;BME280;14362;51.902;7.626;2023-03-26T17:58:32;99943.22;;;7.37;100.00
26775;BME280;14362;51.902;7.626;2023-03-26T18:02:37;99946.31;;;7.27;100.00
26775;BME280;14362;51.902;7.626;2023-03-26T18:06:58;99955.13;;;7.29;100.00
26775;BME280;14362;51.902;7.626;2023-03-26T18:11:30;99962.44;;;7.25;100.00
26775;BME280;14362;51.902;7.626;2023-03-26T18:15:43;99977.72;;;7.14;100.00
26775;BME280;14362;51.902;7.626;2023-03-26T18:19:50;99998.41;;;7.08;100.00
26775;BME280;14362;51.902;7.626;2023-03-26T18:23:54;100009.06;;;7.23;100.00
26775;BME280;14362;51.902;7.626;2023-03-26T18:27:56;100006.97;;;6.99;100.00
26775;BME280;14362;51.902;7.626;2023-03-26T18:32:00;100019.09;;;7.11;100.00
26775;BME280;14362;51.902;7.626;2023-03-26T18:36:02;100026.44;;;7.07;100.00
26775;BME280;14362;51.902;7.626;2023-03-26T18:40:10;100035.34;;;6.96;100.00
26775;BME280;14362;51.902;7.626;2023-03-26T18:44:16;100038.22;;;6.91;100.00
26775;BME280;14362;51.902;7.626;2023-03-26T18:48:20;100055.44;;;6.79;100.00
26775;BME280;14362;51.902;7.626;2023-03-26T18:52:23;100051.06;;;6.87;100.00
26775;BME280;14362;51.902;7.626;2023-03-26T18:56:30;100074.38;;;6.86;100.00
26775;BME280;14362;51.902;7.626;2023-03-26T19:00:33;100081.03;;;6.85;100.00
26775;BME280;14362;51.902;7.626;2023-03-26T19:04:36;100084.59;;;6.77;100.00
26775;BME280;14362;51.902;7.626;2023-03-26T19:08:40;100087.19;;;6.82;100.00
26775;BME280;14362;51.902;7.626;2023-03-26T19:12:44;100095.44;;;6.73;100.00
26775;BME280;14362;51.902;7.626;2023-03-26T19:16:48;100105.72;;;6.73;100.00
26775;BME280;14362;51.902;7.626;2023-03-26T19:20:54;100106.97;;;6.67;100.00
26775;BME280;14362;51.902;7.626;2023-03-26T19:24:59;100119.72;;;6.54;100.00
26775;BME280;14362;51.902;7.626;2023-03-26T19:29:03;100121.97;;;6.52;100.00
26775;BME280;14362;51.902;7.626;2023-03-26T19:33:12;100141.94;;;6.41;100.00
26775;BME280;14362;51.902;7.626;2023-03-26T19:37:17;100137.31;;;6.36;100.00
26775;BME280;14362;51.902;7.626;2023-03-26T19:41:21;100149.84;;;6.20;100.00
26775;BME280;14362;51.902;7.626;2023-03-26T19:45:25;100172.50;;;6.22;100.00
26775;BME280;14362;51.902;7.626;2023-03-26T19:49:28;100181.94;;;5.95;100.00
26775;BME280;14362;51.902;7.626;2023-03-26T19:53:32;100176.94;;;5.83;100.00
26775;BME280;14362;51.902;7.626;2023-03-26T19:57:34;100186.31;;;5.69;100.00
26775;BME280;14362;51.902;7.626;2023-03-26T20:01:38;100189.34;;;5.67;100.00
26775;BME280;14362;51.902;7.626;2023-03-26T20:05:40;100204.06;;;5.49;100.00
26775;BME280;14362;51.902;7.626;2023-03-26T20:09:41;100211.56;;;5.49;100.00
26775;BME280;14362;51.902;7.626;2023-03-26T20:13:43;100215.59;;;5.24;100.00
26775;BME280;14362;51.902;7.626;2023-03-26T20:17:47;100226.41;;;5.21;100.00
26775;BME280;14362;51.902;7.626;2023-03-26T20:21:51;100239.94;;;5.22;100.00
26775;BME280;14362;51.902;7.626;2023-03-26T20:25:53;100241.59;;;5.05;100.00
26775;BME280;14362;51.902;7.626;2023-03-26T20:29:55;100258.38;;;4.90;100.00
26775;BME280;14362;51.902;7.626;2023-03-26T20:33:58;100271.88;;;4.92;100.00
26775;BME280;14362;51.902;7.626;2023-03-26T20:37:59;100269.44;;;4.90;100.00
26775;BME280;14362;51.902;7.626;2023-03-26T20:42:01;100274.00;;;4.81;100.00
26775;BME280;14362;51.902;7.626;2023-03-26T20:46:02;100277.25;;;4.83;100.00
26775;BME280;14362;51.902;7.626;2023-03-26T20:50:06;100297.19;;;4.80;100.00
26775;BME280;14362;51.902;7.626;2023-03-26T20:54:13;100302.78;;;4.75;100.00
26775;BME280;14362;51.902;7.626;2023-03-26T20:58:18;100309.25;;;4.66;100.00
26775;BME280;14362;51.902;7.626;2023-03-26T21:02:21;100311.66;;;4.72;100.00
26775;BME280;14362;51.902;7.626;2023-03-26T21:06:23;100315.69;;;4.80;100.00
26775;BME280;14362;51.902;7.626;2023-03-26T21:10:26;100320.19;;;4.52;100.00
26775;BME280;14362;51.902;7.626;2023-03-26T21:14:31;100324.44;;;4.45;100.00
26775;BME280;14362;51.902;7.626;2023-03-26T21:18:33;100329.41;;;4.43;100.00
26775;BME280;14362;51.902;7.626;2023-03-26T21:22:40;100342.03;;;4.49;100.00
26775;BME280;14362;51.902;7.626;2023-03-26T21:26:48;100352.44;;;4.33;100.00
26775;BME280;14362;51.902;7.626;2023-03-26T21:30:54;100364.63;;;4.27;100.00
26775;BME280;14362;51.902;7.626;2023-03-26T21:34:56;100363.59;;;4.23;100.00
26775;BME280;14362;51.902;7.626;2023-03-26T21:38:59;100376.56;;;4.18;100.00
26775;BME280;14362;51.902;7.626;2023-03-26T21:43:03;100385.78;;;4.08;100.00
26775;BME280;14362;51.902;7.626;2023-03-26T21:47:05;100386.69;;;3.99;100.00
26775;BME280;14362;51.902;7.626;2023-03-26T21:51:09;100396.03;;;4.03;100.00
26775;BME280;14362;51.902;7.626;2023-03-26T21:55:16;100396.16;;;3.93;100.00
26775;BME280;14362;51.902;7.626;2023-03-26T21:59:25;100410.25;;;3.87;100.00
26775;BME280;14362;51.902;7.626;2023-03-26T22:03:33;100414.16;;;3.81;100.00
26775;BME280;14362;51.902;7.626;2023-03-26T22:07:47;100420.81;;;3.75;100.00
26775;BME280;14362;51.902;7.626;2023-03-26T22:11:50;100424.19;;;3.67;100.00
26775;BME280;14362;51.902;7.626;2023-03-26T22:15:52;100426.09;;;3.71;100.00
26775;BME280;14362;51.902;7.626;2023-03-26T22:19:53;100433.06;;;3.59;100.00
26775;BME280;14362;51.902;7.626;2023-03-26T22:23:55;100444.09;;;3.59;100.00
26775;BME280;14362;51.902;7.626;2023-03-26T22:27:58;100459.53;;;3.55;100.00